Tampa, Florida
Traffic Map
Current Weather Conditions
Tampa, Florida
Broken Clouds
Broken Clouds
85°
Feels Like: 86°
Wind Chill: 85° Ceiling: 28000
Heat Index: 86° Visibility: 10mi
Dew Point: 63° Wind: 5mph
Humidity: 48% Direction: 30° (NNE)
Pressure: 29.94in Gusts: 0mph
Raw Report DataKTPA 242353Z 03004KT 10SM FEW045 FEW065 BKN280 29/17 A2994 RMK AO2 SLP138 T02940172 10317 20283 53001
Traffic Incident Summary
Active as of:
Severity:
Category:
InformationThere was an issue retrieving the traffic information for this location. Please try a different location or try again shortly.
Advertisements
Track Severe Weather on mobile